createdAt,value
2023-01-15T00:01:43.637Z,3.00
2023-01-15T00:04:23.801Z,3.01
2023-01-15T00:07:04.537Z,2.99
2023-01-15T00:09:42.863Z,3.03
2023-01-15T00:12:24.080Z,3.10
2023-01-15T00:15:07.298Z,2.99
2023-01-15T00:17:53.476Z,2.98
2023-01-15T00:20:31.212Z,2.96
2023-01-15T00:23:26.428Z,2.85
2023-01-15T00:26:15.290Z,2.71
2023-01-15T00:28:51.552Z,2.82
2023-01-15T00:31:44.233Z,2.73
2023-01-15T00:34:21.894Z,2.82
2023-01-15T00:37:04.864Z,2.72
2023-01-15T00:39:53.337Z,2.73
2023-01-15T00:42:31.435Z,2.71
2023-01-15T00:45:11.388Z,2.73
2023-01-15T00:47:51.123Z,2.70
2023-01-15T00:50:31.351Z,2.68
2023-01-15T00:53:19.419Z,2.57
2023-01-15T00:56:00.117Z,2.57
2023-01-15T00:58:44.015Z,2.74
2023-01-15T01:01:26.190Z,2.75
2023-01-15T01:04:04.460Z,2.66
2023-01-15T01:06:47.851Z,2.67
2023-01-15T01:09:25.756Z,2.60
2023-01-15T01:12:10.001Z,2.61
2023-01-15T01:14:53.778Z,2.68
2023-01-15T01:17:31.433Z,2.63
2023-01-15T01:20:14.409Z,2.65
2023-01-15T01:23:00.495Z,2.66
2023-01-15T01:25:38.647Z,2.66
2023-01-15T01:28:22.169Z,2.69
2023-01-15T01:30:55.088Z,2.54
2023-01-15T01:33:36.139Z,2.60
2023-01-15T01:36:19.403Z,2.65
2023-01-15T01:39:06.812Z,2.64
2023-01-15T01:41:42.505Z,2.48
2023-01-15T01:44:37.284Z,2.46
2023-01-15T01:47:15.622Z,2.48
2023-01-15T01:49:55.980Z,2.55
2023-01-15T01:52:46.437Z,2.41
2023-01-15T01:55:22.112Z,2.47
2023-01-15T01:58:06.135Z,2.51
2023-01-15T02:00:50.534Z,2.41
2023-01-15T02:03:46.492Z,2.46
2023-01-15T02:06:35.305Z,2.46
2023-01-15T02:09:15.665Z,2.45
2023-01-15T02:12:00.549Z,2.59
2023-01-15T02:15:03.246Z,2.52
2023-01-15T02:17:47.566Z,2.59
2023-01-15T02:20:36.151Z,2.61
2023-01-15T02:23:59.511Z,2.49
2023-01-15T02:27:19.866Z,2.53
2023-01-15T02:30:04.360Z,2.44
2023-01-15T02:33:01.885Z,2.42
2023-01-15T02:35:43.322Z,2.60
2023-01-15T02:38:24.339Z,2.68
2023-01-15T02:41:06.161Z,2.76
2023-01-15T02:44:00.390Z,2.72
2023-01-15T02:46:44.478Z,2.51
2023-01-15T02:49:23.325Z,2.42
2023-01-15T02:52:09.771Z,2.42
2023-01-15T02:55:06.673Z,2.47
2023-01-15T02:57:50.121Z,2.45
2023-01-15T03:00:36.978Z,2.49
2023-01-15T03:03:18.132Z,2.53
2023-01-15T03:06:21.566Z,2.55
2023-01-15T03:08:57.903Z,2.53
2023-01-15T03:11:38.174Z,2.51
2023-01-15T03:14:26.808Z,2.52
2023-01-15T03:17:18.955Z,2.53
2023-01-15T03:19:59.217Z,2.49
2023-01-15T03:22:44.021Z,2.43
2023-01-15T03:25:36.391Z,2.46
2023-01-15T03:28:21.110Z,2.38
2023-01-15T03:31:07.127Z,2.49
2023-01-15T03:33:51.514Z,2.43
2023-01-15T03:36:27.120Z,2.46
2023-01-15T03:39:17.322Z,2.49
2023-01-15T03:42:20.375Z,2.37
2023-01-15T03:45:42.575Z,2.35
2023-01-15T03:48:28.607Z,2.40
2023-01-15T03:51:17.518Z,2.48
2023-01-15T03:54:02.927Z,2.39
2023-01-15T03:56:59.096Z,2.34
2023-01-15T03:59:49.096Z,2.40
2023-01-15T04:02:28.035Z,2.43
2023-01-15T04:05:06.148Z,2.38
2023-01-15T04:07:44.884Z,2.41
2023-01-15T04:10:32.104Z,2.35
2023-01-15T04:13:13.792Z,2.46
2023-01-15T04:16:02.404Z,2.35
2023-01-15T04:18:44.568Z,2.34
2023-01-15T04:21:22.317Z,2.32
2023-01-15T04:23:59.983Z,2.24
2023-01-15T04:26:46.194Z,2.43
2023-01-15T04:29:20.907Z,2.34
2023-01-15T04:32:01.772Z,2.48
2023-01-15T04:34:34.798Z,2.28
2023-01-15T04:37:25.178Z,2.30
2023-01-15T04:40:09.535Z,2.25
2023-01-15T04:42:54.922Z,2.38
2023-01-15T04:45:29.908Z,2.26
2023-01-15T04:48:13.114Z,2.19
2023-01-15T04:51:11.002Z,2.27
2023-01-15T04:53:46.797Z,2.13
2023-01-15T04:56:26.841Z,2.27
2023-01-15T04:59:12.942Z,2.15
2023-01-15T05:02:03.860Z,2.20
2023-01-15T05:04:46.973Z,2.20
2023-01-15T05:07:22.943Z,2.22
2023-01-15T05:10:00.477Z,2.21
2023-01-15T05:12:45.737Z,2.30
2023-01-15T05:15:29.556Z,2.22
2023-01-15T05:18:04.783Z,2.35
2023-01-15T05:20:46.006Z,2.26
2023-01-15T05:23:29.504Z,2.27
2023-01-15T05:26:13.716Z,2.39
2023-01-15T05:29:01.704Z,2.26
2023-01-15T05:31:37.225Z,2.30
2023-01-15T05:34:12.395Z,2.28
2023-01-15T05:36:57.688Z,2.33
2023-01-15T05:39:35.150Z,2.43
2023-01-15T05:42:20.850Z,2.48
2023-01-15T05:44:58.674Z,2.34
2023-01-15T05:47:39.289Z,2.33
2023-01-15T05:50:17.200Z,2.32
2023-01-15T05:53:08.339Z,2.39
2023-01-15T05:55:46.261Z,2.43
2023-01-15T05:58:24.746Z,2.37
2023-01-15T06:01:09.163Z,2.34
2023-01-15T06:03:51.286Z,2.32
2023-01-15T06:06:35.564Z,2.33
2023-01-15T06:09:21.686Z,2.25
2023-01-15T06:12:15.213Z,2.32
2023-01-15T06:14:50.690Z,2.41
2023-01-15T06:17:28.330Z,2.46
2023-01-15T06:20:12.142Z,2.42
2023-01-15T06:22:44.452Z,2.41
2023-01-15T06:25:20.121Z,2.48
2023-01-15T06:27:55.172Z,2.42
2023-01-15T06:30:36.121Z,2.42
2023-01-15T06:33:15.102Z,2.49
2023-01-15T06:35:53.354Z,2.48
2023-01-15T06:38:28.562Z,2.39
2023-01-15T06:41:25.252Z,2.55
2023-01-15T06:44:16.436Z,2.67
2023-01-15T06:47:09.297Z,2.61
2023-01-15T06:49:44.397Z,2.57
2023-01-15T06:52:17.378Z,2.74
2023-01-15T06:54:58.201Z,2.69
2023-01-15T06:57:41.267Z,2.68
2023-01-15T07:00:28.100Z,2.71
2023-01-15T07:03:11.270Z,2.79
2023-01-15T07:05:52.059Z,2.75
2023-01-15T07:08:30.347Z,2.89
2023-01-15T07:11:13.492Z,2.76
2023-01-15T07:14:05.982Z,2.77
2023-01-15T07:16:42.198Z,2.85
2023-01-15T07:19:20.949Z,2.93
2023-01-15T07:21:51.017Z,2.95
2023-01-15T07:24:31.818Z,3.04
2023-01-15T07:27:06.523Z,3.11
2023-01-15T07:29:44.831Z,3.05
2023-01-15T07:32:25.062Z,3.08
2023-01-15T07:35:00.878Z,3.01
2023-01-15T07:37:44.071Z,3.09
2023-01-15T07:40:16.975Z,3.10
2023-01-15T07:43:08.321Z,3.12
2023-01-15T07:46:01.020Z,3.14
2023-01-15T07:48:51.950Z,3.24
2023-01-15T07:51:29.559Z,3.27
2023-01-15T07:54:15.676Z,3.23
2023-01-15T07:57:00.114Z,3.26
2023-01-15T07:59:44.430Z,3.24
2023-01-15T08:02:35.362Z,3.24
2023-01-15T08:05:15.885Z,3.37
2023-01-15T08:07:50.061Z,3.30
2023-01-15T08:10:26.277Z,3.37
2023-01-15T08:13:26.013Z,3.38
2023-01-15T08:16:04.151Z,3.47
2023-01-15T08:18:38.832Z,3.57
2023-01-15T08:21:25.002Z,3.47
2023-01-15T08:23:58.414Z,3.48
2023-01-15T08:26:44.587Z,3.61
2023-01-15T08:29:22.456Z,3.56
2023-01-15T08:32:03.447Z,3.66
2023-01-15T08:34:47.139Z,3.76
2023-01-15T08:37:20.252Z,3.78
2023-01-15T08:40:01.088Z,3.73
2023-01-15T08:42:44.346Z,3.83
2023-01-15T08:45:22.652Z,3.84
2023-01-15T08:48:13.565Z,3.86
2023-01-15T08:50:54.110Z,4.03
2023-01-15T08:53:31.727Z,4.11
2023-01-15T08:56:17.000Z,4.19
2023-01-15T08:58:52.699Z,4.10
2023-01-15T09:01:36.102Z,4.23
2023-01-15T09:04:19.292Z,4.21
2023-01-15T09:06:56.056Z,4.16
2023-01-15T09:09:34.160Z,4.24
2023-01-15T09:12:07.193Z,4.38
2023-01-15T09:14:56.844Z,4.53
2023-01-15T09:17:46.177Z,4.54
2023-01-15T09:20:24.421Z,4.66
2023-01-15T09:23:02.638Z,4.73
2023-01-15T09:25:45.893Z,4.79
2023-01-15T09:28:34.841Z,4.82
2023-01-15T09:31:13.131Z,4.70
2023-01-15T09:33:56.580Z,4.83
2023-01-15T09:36:43.858Z,4.87
2023-01-15T09:39:21.541Z,4.88
2023-01-15T09:42:18.174Z,5.00
2023-01-15T09:45:14.673Z,5.06
2023-01-15T09:48:11.799Z,5.12
2023-01-15T09:51:04.021Z,5.13
2023-01-15T09:53:47.433Z,5.18
2023-01-15T09:56:28.623Z,5.32
2023-01-15T09:59:12.502Z,5.32
2023-01-15T10:01:51.497Z,5.40
2023-01-15T10:04:43.515Z,5.54
2023-01-15T10:07:25.158Z,5.41
2023-01-15T10:10:04.418Z,5.59
2023-01-15T10:12:47.272Z,5.70
2023-01-15T10:15:30.425Z,5.69
2023-01-15T10:18:14.132Z,5.82
2023-01-15T10:21:48.225Z,5.78
2023-01-15T10:24:42.041Z,5.82
2023-01-15T10:27:30.230Z,5.81
2023-01-15T10:30:37.564Z,5.90
2023-01-15T10:33:46.498Z,5.94
2023-01-15T10:36:28.150Z,5.97
2023-01-15T10:39:19.108Z,6.18
2023-01-15T10:42:07.920Z,6.14
2023-01-15T10:45:01.750Z,6.33
2023-01-15T10:47:51.332Z,6.33
2023-01-15T10:50:35.559Z,6.48
2023-01-15T10:53:22.165Z,6.38
2023-01-15T10:56:03.936Z,6.65
2023-01-15T10:59:08.675Z,6.36
2023-01-15T11:01:49.096Z,6.33
2023-01-15T11:04:25.816Z,6.26
2023-01-15T11:07:00.681Z,6.40
2023-01-15T11:09:35.956Z,6.25
2023-01-15T11:12:25.603Z,6.52
2023-01-15T11:15:13.944Z,6.51
2023-01-15T11:18:06.897Z,6.57
2023-01-15T11:20:51.610Z,6.63
2023-01-15T11:23:35.333Z,6.49
2023-01-15T11:26:15.605Z,6.50
2023-01-15T11:29:08.948Z,6.52
2023-01-15T11:31:45.843Z,6.46
2023-01-15T11:34:27.727Z,6.48
2023-01-15T11:37:13.492Z,6.73
2023-01-15T11:40:00.431Z,6.59
2023-01-15T11:42:55.053Z,6.76
2023-01-15T11:45:46.203Z,6.89
2023-01-15T11:48:44.352Z,6.84
2023-01-15T11:51:16.152Z,7.03
2023-01-15T11:54:02.404Z,7.23
2023-01-15T11:56:42.148Z,7.04
2023-01-15T11:59:26.004Z,7.19
2023-01-15T12:02:04.337Z,7.21
2023-01-15T12:04:53.110Z,7.08
2023-01-15T12:07:26.189Z,7.09
2023-01-15T12:10:23.261Z,7.10
2023-01-15T12:13:18.420Z,7.08
2023-01-15T12:16:31.947Z,6.85
2023-01-15T12:19:30.870Z,7.07
2023-01-15T12:22:24.806Z,7.03
2023-01-15T12:25:14.467Z,7.11
2023-01-15T12:27:58.150Z,7.25
2023-01-15T12:30:41.983Z,7.33
2023-01-15T12:33:22.100Z,7.45
2023-01-15T12:36:19.983Z,7.38
2023-01-15T12:39:16.548Z,7.47
2023-01-15T12:42:11.567Z,7.41
2023-01-15T12:45:05.059Z,7.38
2023-01-15T12:47:57.986Z,7.47
2023-01-15T12:50:53.643Z,7.39
2023-01-15T12:53:52.848Z,7.46
2023-01-15T12:57:02.898Z,7.41
2023-01-15T12:59:48.519Z,7.33
2023-01-15T13:02:36.462Z,7.27
2023-01-15T13:05:32.352Z,7.20
2023-01-15T13:08:53.491Z,6.90
2023-01-15T13:11:28.664Z,7.04
2023-01-15T13:14:23.048Z,7.02
2023-01-15T13:17:15.056Z,6.99
2023-01-15T13:20:08.144Z,6.98
2023-01-15T13:23:04.824Z,6.93
2023-01-15T13:25:49.603Z,6.90
2023-01-15T13:28:53.051Z,6.77
2023-01-15T13:31:43.295Z,6.76
2023-01-15T13:34:42.207Z,6.78
2023-01-15T13:37:26.254Z,6.78
2023-01-15T13:40:15.643Z,6.84
2023-01-15T13:43:03.055Z,6.83
2023-01-15T13:45:59.554Z,6.82
2023-01-15T13:48:52.079Z,6.79
2023-01-15T13:51:45.112Z,6.87
2023-01-15T13:54:44.487Z,6.90
2023-01-15T13:57:43.251Z,6.89
2023-01-15T14:00:40.339Z,6.91
2023-01-15T14:03:33.010Z,6.95
2023-01-15T14:06:08.469Z,6.89
2023-01-15T14:08:46.457Z,6.92
2023-01-15T14:11:57.383Z,6.79
2023-01-15T14:14:43.124Z,6.74
2023-01-15T14:17:33.993Z,6.74
2023-01-15T14:20:34.093Z,6.84
2023-01-15T14:23:32.530Z,6.77
2023-01-15T14:26:31.198Z,6.67
2023-01-15T14:29:22.282Z,6.60
2023-01-15T14:32:12.029Z,6.58
2023-01-15T14:35:10.552Z,6.62
2023-01-15T14:38:09.515Z,6.45
2023-01-15T14:40:51.833Z,6.33
2023-01-15T14:43:31.401Z,6.41
2023-01-15T14:46:22.451Z,6.30
2023-01-15T14:49:00.111Z,6.39
2023-01-15T14:51:38.318Z,6.34
2023-01-15T14:54:22.071Z,6.30
2023-01-15T14:57:04.304Z,6.27
2023-01-15T15:00:04.041Z,6.30
2023-01-15T15:02:51.101Z,6.11
2023-01-15T15:05:29.758Z,6.16
2023-01-15T15:08:06.562Z,6.23
2023-01-15T15:10:49.604Z,6.21
2023-01-15T15:13:37.954Z,6.18
2023-01-15T15:16:21.175Z,6.15
2023-01-15T15:19:14.260Z,6.15
2023-01-15T15:21:56.010Z,6.10
2023-01-15T15:24:45.761Z,6.08
2023-01-15T15:27:38.089Z,5.96
2023-01-15T15:30:21.041Z,5.98
2023-01-15T15:33:02.530Z,5.97
2023-01-15T15:35:41.093Z,5.93
2023-01-15T15:38:24.740Z,6.04
2023-01-15T15:41:07.515Z,5.98
2023-01-15T15:44:33.848Z,5.95
2023-01-15T15:47:45.730Z,5.93
2023-01-15T15:50:32.115Z,6.02
2023-01-15T15:53:09.103Z,5.95
2023-01-15T15:55:50.038Z,5.99
2023-01-15T15:58:41.111Z,5.87
2023-01-15T16:01:15.637Z,5.93
2023-01-15T16:03:56.903Z,5.97
2023-01-15T16:06:35.062Z,6.00
2023-01-15T16:09:18.437Z,5.92
2023-01-15T16:12:07.378Z,5.88
2023-01-15T16:14:49.221Z,5.78
2023-01-15T16:17:28.335Z,5.77
2023-01-15T16:20:21.033Z,5.81
2023-01-15T16:23:04.448Z,5.85
2023-01-15T16:25:48.610Z,5.80
2023-01-15T16:28:52.719Z,5.78
2023-01-15T16:31:24.886Z,5.76
2023-01-15T16:34:04.286Z,5.84
2023-01-15T16:36:47.646Z,5.77
2023-01-15T16:39:50.946Z,5.76
2023-01-15T16:42:48.958Z,5.75
2023-01-15T16:45:30.117Z,5.80
2023-01-15T16:48:30.195Z,5.76
2023-01-15T16:51:43.220Z,5.77
2023-01-15T16:54:47.626Z,5.82
2023-01-15T16:57:32.575Z,5.83
2023-01-15T17:00:22.943Z,5.82
2023-01-15T17:02:59.080Z,5.83
2023-01-15T17:05:37.221Z,5.86
2023-01-15T17:08:21.878Z,5.84
2023-01-15T17:11:13.021Z,5.76
2023-01-15T17:13:48.383Z,5.72
2023-01-15T17:16:29.610Z,5.74
2023-01-15T17:19:08.048Z,5.64
2023-01-15T17:21:47.645Z,5.66
2023-01-15T17:24:23.079Z,5.73
2023-01-15T17:27:08.608Z,5.70
2023-01-15T17:29:47.720Z,5.64
2023-01-15T17:32:30.025Z,5.58
2023-01-15T17:35:22.760Z,5.55
2023-01-15T17:38:03.470Z,5.58
2023-01-15T17:40:39.058Z,5.51
2023-01-15T17:43:35.483Z,5.47
2023-01-15T17:46:14.948Z,5.49
2023-01-15T17:48:57.159Z,5.48
2023-01-15T17:51:44.058Z,5.30
2023-01-15T17:54:33.854Z,5.41
2023-01-15T17:57:28.416Z,5.34
2023-01-15T18:00:19.273Z,5.35
2023-01-15T18:03:13.661Z,5.28
2023-01-15T18:05:53.983Z,5.20
2023-01-15T18:08:34.870Z,5.19
2023-01-15T18:11:13.522Z,5.19
2023-01-15T18:13:52.639Z,5.26
2023-01-15T18:16:36.556Z,5.32
2023-01-15T18:19:17.252Z,5.40
2023-01-15T18:21:52.905Z,5.32
2023-01-15T18:24:33.455Z,5.27
2023-01-15T18:27:21.153Z,5.32
2023-01-15T18:29:53.953Z,5.31
2023-01-15T18:32:33.400Z,5.35
2023-01-15T18:35:12.192Z,5.31
2023-01-15T18:37:50.308Z,5.22
2023-01-15T18:40:29.709Z,5.23
2023-01-15T18:43:24.040Z,5.16
2023-01-15T18:46:09.525Z,5.35
2023-01-15T18:48:55.761Z,5.34
2023-01-15T18:51:35.068Z,5.28
2023-01-15T18:54:18.798Z,5.28
2023-01-15T18:56:59.572Z,5.26
2023-01-15T18:59:40.445Z,5.43
2023-01-15T19:02:14.642Z,5.36
2023-01-15T19:05:13.059Z,5.34
2023-01-15T19:07:53.342Z,5.30
2023-01-15T19:10:33.824Z,5.33
2023-01-15T19:13:20.408Z,5.25
2023-01-15T19:16:24.200Z,5.32
2023-01-15T19:19:03.649Z,5.35
2023-01-15T19:21:47.513Z,5.38
2023-01-15T19:24:33.848Z,5.09
2023-01-15T19:27:18.294Z,5.09
2023-01-15T19:29:53.449Z,5.04
2023-01-15T19:32:28.738Z,5.05
2023-01-15T19:35:04.273Z,5.08
2023-01-15T19:37:47.797Z,5.06
2023-01-15T19:40:30.364Z,5.07
2023-01-15T19:43:18.545Z,5.16
2023-01-15T19:46:07.595Z,5.09
2023-01-15T19:48:59.431Z,5.15
2023-01-15T19:51:53.255Z,5.19
2023-01-15T19:54:48.209Z,5.18
2023-01-15T19:57:41.167Z,5.14
2023-01-15T20:00:26.496Z,5.12
2023-01-15T20:03:05.501Z,5.18
2023-01-15T20:05:43.996Z,5.16
2023-01-15T20:08:23.064Z,5.12
2023-01-15T20:11:10.145Z,5.02
2023-01-15T20:13:57.299Z,5.08
2023-01-15T20:16:39.117Z,5.17
2023-01-15T20:19:16.597Z,5.15
2023-01-15T20:22:00.439Z,5.12
2023-01-15T20:24:44.715Z,5.13
2023-01-15T20:27:22.985Z,5.14
2023-01-15T20:30:22.483Z,5.08
2023-01-15T20:33:14.162Z,5.26
2023-01-15T20:35:54.424Z,5.23
2023-01-15T20:38:30.860Z,5.17
2023-01-15T20:41:41.756Z,5.19
2023-01-15T20:44:37.399Z,5.24
2023-01-15T20:47:27.243Z,5.17
2023-01-15T20:50:05.575Z,5.12
2023-01-15T20:52:50.314Z,5.12
2023-01-15T20:55:34.003Z,5.08
2023-01-15T20:58:19.489Z,4.98
2023-01-15T21:00:56.546Z,4.96
2023-01-15T21:03:40.432Z,5.04
2023-01-15T21:06:21.141Z,5.17
2023-01-15T21:08:58.935Z,5.05
2023-01-15T21:11:52.443Z,5.03
2023-01-15T21:14:35.270Z,5.03
2023-01-15T21:17:15.605Z,5.03
2023-01-15T21:19:56.354Z,5.04
2023-01-15T21:22:49.038Z,4.98
2023-01-15T21:25:43.889Z,4.98
2023-01-15T21:28:25.075Z,4.99
2023-01-15T21:31:07.090Z,4.80
2023-01-15T21:33:54.427Z,4.93
2023-01-15T21:36:39.023Z,4.93
2023-01-15T21:39:18.774Z,4.91
2023-01-15T21:42:19.097Z,4.98
2023-01-15T21:45:02.757Z,4.97
2023-01-15T21:47:43.793Z,4.97
2023-01-15T21:50:28.099Z,5.00
2023-01-15T21:53:15.952Z,4.95
2023-01-15T21:55:58.705Z,4.88
2023-01-15T21:58:40.955Z,4.88
2023-01-15T22:01:39.168Z,4.88
2023-01-15T22:04:19.376Z,4.96
2023-01-15T22:07:06.301Z,4.89
2023-01-15T22:09:53.189Z,4.96
2023-01-15T22:12:38.231Z,4.88
2023-01-15T22:15:30.846Z,4.84
2023-01-15T22:18:11.602Z,4.84
2023-01-15T22:21:01.625Z,4.88
2023-01-15T22:23:42.788Z,4.81
2023-01-15T22:26:38.025Z,4.74
2023-01-15T22:29:36.338Z,4.75
2023-01-15T22:32:22.153Z,4.69
2023-01-15T22:35:07.373Z,4.69
2023-01-15T22:37:53.010Z,4.61
2023-01-15T22:40:30.797Z,4.71
2023-01-15T22:43:27.348Z,4.58
2023-01-15T22:46:17.431Z,4.42
2023-01-15T22:49:01.367Z,4.41
2023-01-15T22:51:49.755Z,4.44
2023-01-15T22:54:42.366Z,4.47
2023-01-15T22:57:18.120Z,4.30
2023-01-15T23:00:08.001Z,4.33
2023-01-15T23:03:05.303Z,4.41
2023-01-15T23:06:03.077Z,4.31
2023-01-15T23:08:42.455Z,4.37
2023-01-15T23:11:21.068Z,4.22
2023-01-15T23:14:00.307Z,4.12
2023-01-15T23:16:55.647Z,4.08
2023-01-15T23:19:46.019Z,4.08
2023-01-15T23:22:35.024Z,4.08
2023-01-15T23:25:10.378Z,4.08
2023-01-15T23:27:51.209Z,4.07
2023-01-15T23:30:45.551Z,4.08
2023-01-15T23:33:32.124Z,4.08
2023-01-15T23:36:07.031Z,4.05
2023-01-15T23:38:46.834Z,4.03
2023-01-15T23:41:43.523Z,4.03
2023-01-15T23:44:41.515Z,4.06
2023-01-15T23:47:24.482Z,4.05
2023-01-15T23:50:05.564Z,3.92
2023-01-15T23:52:44.284Z,3.96
2023-01-15T23:55:24.975Z,3.89
2023-01-15T23:58:20.121Z,3.84
